Time;durP1;ratioP1;P1;durP2;ratioP2;P2;SDS_P1;SDS_P2;PMS_P1;PMS_P2;Temp;Humidity;BMP_temperature;BMP_pressure;BME280_temperature;BME280_humidity;BME280_pressure;Samples;Min_cycle;Max_cycle;Signal;HPM_P1;HPM_P2
2023/12/06 00:02:23;;;;;;;60.50;32.75;;;;;;;5.24;77.68;100773.66;4918258;28;20058;-80
2023/12/06 00:04:52;;;;;;;62.45;36.58;;;;;;;5.20;77.34;100756.34;4904948;28;20057;-81
2023/12/06 00:07:19;;;;;;;65.03;36.00;;;;;;;5.44;77.46;100789.97;4933365;28;20057;-81
2023/12/06 00:09:45;;;;;;;59.92;34.17;;;;;;;5.45;77.21;100779.31;4902086;28;20046;-80
2023/12/06 00:12:18;;;;;;;63.25;35.15;;;;;;;5.35;77.35;100772.94;4924844;28;20700;-80
2023/12/06 00:14:51;;;;;;;59.08;32.85;;;;;;;5.47;77.05;100790.59;4913211;28;20060;-82
2023/12/06 00:17:20;;;;;;;62.00;32.75;;;;;;;5.40;76.77;100777.94;4928219;28;20119;-80
2023/12/06 00:19:47;;;;;;;55.95;33.30;;;;;;;5.43;76.56;100786.47;4929367;28;20066;-81
2023/12/06 00:22:14;;;;;;;58.97;32.20;;;;;;;5.34;77.13;100785.28;4925783;28;20362;-82
2023/12/06 00:24:41;;;;;;;58.25;32.17;;;;;;;5.44;76.90;100797.88;4921686;28;20789;-81
2023/12/06 00:27:13;;;;;;;61.33;32.53;;;;;;;5.25;76.97;100779.75;4939403;28;20297;-81
2023/12/06 00:29:45;;;;;;;61.15;33.70;;;;;;;5.16;77.20;100783.81;4935563;28;20057;-82
2023/12/06 00:32:18;;;;;;;60.75;31.23;;;;;;;5.00;77.43;100752.38;4929787;28;20050;-81
2023/12/06 00:34:54;;;;;;;56.65;30.95;;;;;;;5.29;77.27;100782.09;4926222;28;20294;-81
2023/12/06 00:37:28;;;;;;;55.00;31.02;;;;;;;5.32;77.00;100792.44;4919485;28;20581;-81
2023/12/06 00:40:05;;;;;;;50.67;29.98;;;;;;;5.34;76.83;100793.19;4928095;28;20057;-82
2023/12/06 00:42:34;;;;;;;57.45;30.00;;;;;;;5.22;76.89;100777.31;4938280;28;20052;-82
2023/12/06 00:45:06;;;;;;;54.13;31.42;;;;;;;5.32;77.25;100802.97;4922616;28;20053;-82
2023/12/06 00:47:33;;;;;;;48.13;29.77;;;;;;;5.34;76.62;100795.81;4921185;28;20472;-80
2023/12/06 00:50:02;;;;;;;53.22;28.48;;;;;;;5.30;75.23;100762.72;4932888;28;20046;-83
2023/12/06 00:52:32;;;;;;;50.58;28.48;;;;;;;5.39;74.71;100782.34;4945699;28;20147;-81
2023/12/06 00:54:59;;;;;;;49.58;29.15;;;;;;;5.26;75.62;100778.81;4923062;28;20077;-81
2023/12/06 00:57:31;;;;;;;48.10;27.08;;;;;;;5.24;75.33;100773.66;4929843;28;20565;-82
2023/12/06 01:00:02;;;;;;;53.15;30.70;;;;;;;5.24;75.65;100789.44;4927906;28;20762;-80
2023/12/06 01:02:29;;;;;;;57.33;30.95;;;;;;;5.20;75.99;100792.38;4926161;28;20049;-80
2023/12/06 01:04:59;;;;;;;52.38;30.08;;;;;;;4.79;75.85;100719.53;4913077;28;20088;-81
2023/12/06 01:07:27;;;;;;;54.47;31.17;;;;;;;5.20;75.71;100797.63;4927997;28;20046;-80
2023/12/06 01:10:02;;;;;;;60.05;31.35;;;;;;;5.15;75.84;100800.56;4938314;28;20053;-81
2023/12/06 01:12:38;;;;;;;54.92;31.10;;;;;;;5.27;75.48;100810.31;4939209;28;20091;-82
2023/12/06 01:15:06;;;;;;;52.05;32.00;;;;;;;5.09;76.49;100800.94;4938299;28;20072;-80
2023/12/06 01:17:38;;;;;;;52.83;31.35;;;;;;;5.13;76.56;100815.59;4940777;28;20427;-82
2023/12/06 01:20:06;;;;;;;55.83;33.22;;;;;;;5.11;76.97;100820.09;4913708;28;20140;-83
2023/12/06 01:22:33;;;;;;;52.53;31.58;;;;;;;5.09;77.16;100819.34;4926674;28;20045;-81
2023/12/06 01:25:00;;;;;;;51.17;31.63;;;;;;;5.14;76.50;100822.53;4939403;28;20413;-82
2023/12/06 01:27:27;;;;;;;51.08;30.05;;;;;;;5.20;76.34;100824.78;4942961;28;20321;-80
2023/12/06 01:29:54;;;;;;;53.53;30.30;;;;;;;5.04;76.77;100801.22;4926649;28;20363;-80
2023/12/06 01:32:37;;;;;;;51.50;31.15;;;;;;;5.10;76.42;100818.41;4942819;28;20219;-81
2023/12/06 01:35:04;;;;;;;51.85;29.45;;;;;;;5.12;76.21;100811.25;4930162;28;20057;-81
2023/12/06 01:37:31;;;;;;;50.53;29.42;;;;;;;5.14;76.53;100820.75;4941969;28;20058;-81
2023/12/06 01:40:04;;;;;;;42.33;25.67;;;;;;;5.24;76.35;100823.66;4920592;28;20054;-81
2023/12/06 01:42:43;;;;;;;49.67;26.92;;;;;;;5.04;76.40;100800.38;4972464;28;20046;-80
2023/12/06 01:45:11;;;;;;;45.25;25.73;;;;;;;4.90;76.55;100773.16;4949622;28;20491;-82
2023/12/06 01:47:38;;;;;;;45.08;25.98;;;;;;;5.21;76.57;100815.09;4968813;28;20060;-80
2023/12/06 01:50:08;;;;;;;37.70;23.83;;;;;;;4.99;76.35;100773.50;4972780;28;20050;-81
2023/12/06 01:52:41;;;;;;;38.97;24.60;;;;;;;5.23;76.00;100814.06;4964198;28;20301;-81
2023/12/06 01:55:14;;;;;;;41.10;24.48;;;;;;;5.11;76.15;100793.78;4953246;28;20311;-81
2023/12/06 01:57:42;;;;;;;42.83;22.70;;;;;;;5.24;75.46;100821.03;4946436;28;20320;-81
2023/12/06 02:00:09;;;;;;;39.92;22.90;;;;;;;5.20;75.41;100795.84;4964468;28;20120;-80
2023/12/06 02:02:36;;;;;;;38.15;22.27;;;;;;;5.23;74.96;100787.75;4939467;28;20445;-81
2023/12/06 02:05:03;;;;;;;35.63;21.15;;;;;;;5.23;74.99;100782.47;4959997;28;20066;-80
2023/12/06 02:07:32;;;;;;;35.88;20.10;;;;;;;5.04;74.65;100734.59;4983858;28;20398;-82
2023/12/06 02:09:59;;;;;;;29.27;17.95;;;;;;;5.14;73.52;100747.03;4978109;28;20054;-80
2023/12/06 02:12:31;;;;;;;32.60;19.27;;;;;;;5.45;73.98;100800.38;4972560;28;20491;-81
2023/12/06 02:15:06;;;;;;;28.13;17.08;;;;;;;5.46;73.45;100795.94;4974233;28;20054;-81
2023/12/06 02:17:33;;;;;;;30.90;17.83;;;;;;;5.40;73.74;100793.72;4984731;28;20108;-81
2023/12/06 02:20:07;;;;;;;27.27;16.23;;;;;;;5.42;73.97;100794.47;4978889;28;20507;-81
2023/12/06 02:22:52;;;;;;;28.27;17.40;;;;;;;5.26;74.16;100765.63;4985239;28;20057;-81
2023/12/06 02:25:20;;;;;;;25.40;16.20;;;;;;;5.39;73.58;100789.38;4978575;28;20149;-80
2023/12/06 02:27:47;;;;;;;29.17;16.70;;;;;;;5.17;73.89;100772.34;4965854;28;20074;-81
2023/12/06 02:30:17;;;;;;;22.83;15.55;;;;;;;5.29;74.00;100779.47;4979609;28;20070;-81
2023/12/06 02:32:43;;;;;;;28.77;16.48;;;;;;;5.28;74.06;100775.13;4978457;28;20038;-80
2023/12/06 02:35:20;;;;;;;28.52;16.63;;;;;;;4.94;74.39;100713.28;4973058;28;20054;-80
2023/12/06 02:37:49;;;;;;;23.35;15.45;;;;;;;5.22;74.04;100767.63;4971134;28;20268;-80
2023/12/06 02:40:25;;;;;;;22.75;14.30;;;;;;;5.14;74.21;100752.31;4985233;28;20053;-80
2023/12/06 02:42:52;;;;;;;;;;;;;;;5.23;74.50;100773.75;4971229;28;20058;-81
2023/12/06 02:45:22;;;;;;;26.40;15.63;;;;;;;5.13;74.25;100755.06;4968716;28;19922;-80
2023/12/06 02:47:49;;;;;;;23.92;14.55;;;;;;;5.22;74.47;100770.28;4983401;28;20389;-82
2023/12/06 02:50:19;;;;;;;25.40;16.65;;;;;;;5.18;73.82;100747.72;4961520;28;20062;-82
2023/12/06 02:52:46;;;;;;;21.98;14.82;;;;;;;5.28;73.78;100769.88;4980910;28;20404;-82
2023/12/06 02:55:13;;;;;;;24.80;15.63;;;;;;;5.10;74.93;100750.00;4964896;28;20050;-82
2023/12/06 02:57:40;;;;;;;27.63;15.25;;;;;;;4.96;75.24;100731.63;4965221;28;20389;-81
2023/12/06 03:00:08;;;;;;;24.15;14.70;;;;;;;5.00;74.32;100733.09;4965792;28;20089;-81
2023/12/06 03:02:38;;;;;;;22.50;13.73;;;;;;;4.88;74.75;100704.00;4965490;28;20058;-81
2023/12/06 03:05:05;;;;;;;22.90;13.38;;;;;;;5.21;74.24;100763.31;4976031;28;20059;-80
2023/12/06 03:07:32;;;;;;;22.42;14.05;;;;;;;5.30;73.64;100757.44;4992056;28;20108;-80
2023/12/06 03:09:59;;;;;;;21.17;13.05;;;;;;;5.39;73.81;100760.44;4982158;28;20514;-81
2023/12/06 03:12:26;;;;;;;19.80;13.00;;;;;;;5.30;73.75;100748.72;4983073;28;20046;-80
2023/12/06 03:14:53;;;;;;;21.35;13.20;;;;;;;5.22;73.40;100730.78;4980537;28;20935;-81
2023/12/06 03:17:20;;;;;;;21.17;13.88;;;;;;;4.98;73.40;100677.09;4981242;28;20057;-79
2023/12/06 03:19:47;;;;;;;24.40;13.50;;;;;;;5.22;74.12;100736.06;4964869;28;20480;-81
2023/12/06 03:22:14;;;;;;;19.00;12.32;;;;;;;5.20;73.80;100726.56;4959445;28;20332;-80
2023/12/06 03:24:41;;;;;;;20.13;12.82;;;;;;;4.92;73.57;100678.31;4977688;28;20065;-80
2023/12/06 03:27:08;;;;;;;22.45;13.65;;;;;;;4.99;73.30;100694.56;4968733;28;20046;-81
2023/12/06 03:29:35;;;;;;;20.23;12.35;;;;;;;5.24;73.67;100742.06;4989249;28;20045;-82
2023/12/06 03:32:02;;;;;;;21.70;13.90;;;;;;;4.93;73.81;100696.66;4960489;28;20049;-82
2023/12/06 03:34:28;;;;;;;21.27;13.93;;;;;;;4.75;74.10;100665.41;4967126;28;20061;-81
2023/12/06 03:36:55;;;;;;;19.13;12.90;;;;;;;5.22;74.03;100748.34;4970782;28;20432;-81
2023/12/06 03:39:22;;;;;;;20.02;13.40;;;;;;;5.19;73.86;100730.13;4976589;28;20651;-82
2023/12/06 03:41:49;;;;;;;23.08;13.73;;;;;;;4.93;73.43;100690.56;4987976;28;20057;-81
2023/12/06 03:44:19;;;;;;;19.55;12.32;;;;;;;5.22;73.23;100727.28;4975024;28;20046;-81
2023/12/06 03:46:46;;;;;;;19.40;11.85;;;;;;;4.96;73.10;100692.97;4968043;28;20577;-81
2023/12/06 03:49:15;;;;;;;18.88;11.88;;;;;;;5.14;73.40;100735.69;4969741;28;20057;-81
2023/12/06 03:51:42;;;;;;;16.35;10.52;;;;;;;4.96;73.42;100700.88;4961418;28;20459;-81
2023/12/06 03:54:09;;;;;;;16.90;11.00;;;;;;;5.03;73.13;100722.38;4972209;28;20047;-82
2023/12/06 03:56:35;;;;;;;16.50;11.10;;;;;;;5.09;73.35;100737.75;4971996;28;20050;-81
2023/12/06 03:59:04;;;;;;;15.82;11.18;;;;;;;5.13;73.98;100739.28;4971941;28;20549;-81
2023/12/06 04:01:31;;;;;;;16.52;10.82;;;;;;;5.09;73.60;100735.13;4953130;28;20058;-80
2023/12/06 04:03:57;;;;;;;17.48;9.98;;;;;;;5.19;73.43;100743.28;4955516;28;20058;-80
2023/12/06 04:06:24;;;;;;;15.80;10.32;;;;;;;4.97;73.70;100717.50;4975538;28;20085;-80
2023/12/06 04:08:52;;;;;;;15.45;10.35;;;;;;;5.07;73.37;100739.66;4947764;28;20072;-80
2023/12/06 04:11:18;;;;;;;14.63;9.93;;;;;;;4.99;73.75;100715.63;4965103;28;20204;-80
2023/12/06 04:13:45;;;;;;;17.17;10.18;;;;;;;5.19;74.00;100754.66;4986525;28;20061;-79
2023/12/06 04:16:16;;;;;;;16.00;10.77;;;;;;;5.18;72.95;100737.19;4966610;28;20085;-80
2023/12/06 04:18:43;;;;;;;17.98;10.60;;;;;;;5.11;72.35;100726.19;4961623;28;20392;-80
2023/12/06 04:21:10;;;;;;;15.60;11.05;;;;;;;5.22;72.65;100743.09;4949951;28;20058;-81
2023/12/06 04:23:38;;;;;;;18.52;11.15;;;;;;;5.23;72.17;100748.25;4938865;28;20127;-80
2023/12/06 04:26:05;;;;;;;16.52;10.98;;;;;;;5.19;73.31;100748.56;4968457;28;20161;-80
2023/12/06 04:28:32;;;;;;;15.30;11.02;;;;;;;5.16;74.08;100749.59;4964439;28;20248;-80
2023/12/06 04:30:59;;;;;;;16.80;10.75;;;;;;;5.10;73.50;100750.84;4968537;28;20058;-81
2023/12/06 04:33:26;;;;;;;21.15;12.07;;;;;;;5.11;73.38;100749.03;4965457;28;20038;-81
2023/12/06 04:35:53;;;;;;;18.42;11.18;;;;;;;5.12;73.34;100758.63;4946745;28;20054;-81
2023/12/06 04:38:19;;;;;;;18.08;11.88;;;;;;;4.95;73.90;100736.00;4952418;28;20045;-79
2023/12/06 04:40:52;;;;;;;17.88;11.75;;;;;;;5.04;73.50;100745.94;4963689;28;20440;-82
2023/12/06 04:43:20;;;;;;;17.95;11.65;;;;;;;5.10;73.63;100755.25;4973211;28;20133;-81
2023/12/06 04:45:46;;;;;;;16.58;12.10;;;;;;;4.91;74.50;100745.88;4975325;28;20525;-79
2023/12/06 04:48:13;;;;;;;18.20;11.55;;;;;;;5.02;75.05;100762.78;4977475;28;20352;-80
2023/12/06 04:50:57;;;;;;;18.15;13.05;;;;;;;4.46;75.15;100678.59;4962442;28;20333;-79
2023/12/06 04:53:41;;;;;;;19.00;11.70;;;;;;;4.98;74.74;100754.25;4945086;28;20060;-80
2023/12/06 04:56:12;;;;;;;26.52;12.25;;;;;;;4.81;74.65;100738.69;4934514;28;20463;-82
2023/12/06 04:58:44;;;;;;;19.15;12.05;;;;;;;4.77;74.72;100739.81;4939800;28;20054;-82
2023/12/06 05:01:11;;;;;;;21.23;11.27;;;;;;;4.64;75.24;100737.94;4929104;28;20518;-80
2023/12/06 05:03:45;;;;;;;17.45;12.23;;;;;;;4.79;76.17;100762.44;4940687;28;20058;-80
2023/12/06 05:06:24;;;;;;;17.25;11.60;;;;;;;4.70;76.47;100766.47;4910794;28;20486;-82
2023/12/06 05:08:54;;;;;;;18.45;10.93;;;;;;;4.58;76.87;100753.25;4957199;28;20522;-80
2023/12/06 05:11:30;;;;;;;18.58;11.77;;;;;;;4.37;76.50;100723.84;4962305;28;20050;-81
2023/12/06 05:14:02;;;;;;;19.67;12.18;;;;;;;4.67;76.17;100752.69;4963024;28;20089;-81
2023/12/06 05:16:30;;;;;;;19.55;10.40;;;;;;;4.90;75.70;100765.25;4962308;28;20050;-81
2023/12/06 05:18:56;;;;;;;19.58;10.95;;;;;;;4.66;74.91;100729.94;4966934;28;20064;-80
2023/12/06 05:21:28;;;;;;;18.88;10.93;;;;;;;4.89;75.53;100775.88;4967439;28;20559;-80
2023/12/06 05:23:55;;;;;;;16.90;11.15;;;;;;;4.67;75.74;100747.44;4964553;28;20129;-80
2023/12/06 05:26:26;;;;;;;17.50;12.10;;;;;;;4.50;76.60;100740.56;4972419;28;20056;-81
2023/12/06 05:28:54;;;;;;;116.63;95.88;;;;;;;4.53;77.13;100760.56;4965651;28;20656;-80
2023/12/06 05:31:21;;;;;;;85.63;63.80;;;;;;;4.54;77.58;100772.75;4950765;28;20050;-79
2023/12/06 05:33:49;;;;;;;35.90;17.10;;;;;;;4.48;77.37;100756.44;4961428;28;20053;-81
2023/12/06 05:36:16;;;;;;;21.02;14.02;;;;;;;4.34;77.07;100745.91;4963974;28;20508;-80
2023/12/06 05:38:42;;;;;;;21.33;11.80;;;;;;;4.39;75.85;100770.13;4967019;28;20496;-82
2023/12/06 05:41:09;;;;;;;24.55;11.02;;;;;;;3.94;76.17;100715.94;4963885;28;20046;-82
2023/12/06 05:43:36;;;;;;;25.52;11.23;;;;;;;4.29;76.98;100779.50;4966993;28;20793;-82
2023/12/06 05:46:03;;;;;;;20.15;10.75;;;;;;;4.19;77.25;100781.00;4961943;28;20303;-82
2023/12/06 05:48:31;;;;;;;24.67;12.10;;;;;;;4.28;76.89;100777.84;4961456;28;20440;-82
2023/12/06 05:50:58;;;;;;;19.25;11.30;;;;;;;4.28;77.35;100777.84;4962492;28;20661;-82
2023/12/06 05:53:25;;;;;;;19.95;11.23;;;;;;;4.19;77.78;100773.13;4971267;28;20465;-83
2023/12/06 05:55:56;;;;;;;18.13;11.50;;;;;;;4.14;77.99;100775.19;4973368;28;20346;-79
2023/12/06 05:58:22;;;;;;;17.98;11.98;;;;;;;4.14;77.99;100759.41;4958650;28;20519;-83
2023/12/06 06:00:49;;;;;;;20.52;10.27;;;;;;;4.26;77.98;100790.22;4975556;28;20179;-82
2023/12/06 06:03:16;;;;;;;16.88;11.75;;;;;;;4.02;77.84;100721.56;4974639;28;20136;-83
2023/12/06 06:05:51;;;;;;;19.42;10.32;;;;;;;4.44;77.34;100789.13;4965442;28;20057;-82
2023/12/06 06:08:19;;;;;;;27.30;19.83;;;;;;;4.36;77.97;100791.34;4980613;28;20314;-81
2023/12/06 06:10:47;;;;;;;17.83;11.90;;;;;;;4.27;78.09;100794.53;4971280;28;20274;-83
2023/12/06 06:13:14;;;;;;;17.00;10.68;;;;;;;4.15;77.75;100780.34;4961690;28;20178;-81
2023/12/06 06:15:41;;;;;;;21.45;11.80;;;;;;;4.19;78.48;100794.13;4973619;28;20128;-81
2023/12/06 06:18:12;;;;;;;13.77;9.75;;;;;;;4.24;78.91;100786.81;4959913;28;20137;-81
2023/12/06 06:20:41;;;;;;;19.90;12.05;;;;;;;4.22;78.83;100791.31;4946674;28;20543;-81
2023/12/06 06:23:08;;;;;;;18.65;11.27;;;;;;;4.13;79.28;100778.75;4976812;28;20058;-80
2023/12/06 06:25:42;;;;;;;19.08;11.70;;;;;;;3.94;78.69;100740.41;4968376;28;20595;-82
2023/12/06 06:28:08;;;;;;;24.35;11.95;;;;;;;4.35;78.64;100800.19;4982003;28;20519;-80
2023/12/06 06:30:41;;;;;;;18.52;11.10;;;;;;;4.34;78.27;100793.22;4958106;28;20046;-81
2023/12/06 06:33:08;;;;;;;22.08;11.23;;;;;;;4.14;78.54;100755.00;4966721;28;20445;-81
2023/12/06 06:35:40;;;;;;;17.67;11.35;;;;;;;4.41;78.84;100810.31;4974640;28;20045;-81
2023/12/06 06:38:15;;;;;;;22.38;13.95;;;;;;;4.41;78.18;100810.31;4979364;28;20135;-81
2023/12/06 06:40:42;;;;;;;;;;;;;;;4.37;78.58;100814.09;4971525;28;20129;-81
2023/12/06 06:43:09;;;;;;;21.42;12.93;;;;;;;4.22;78.46;100796.56;4983436;28;20040;-81
2023/12/06 06:45:37;;;;;;;23.17;10.75;;;;;;;4.35;79.27;100820.38;4973232;28;20045;-81
2023/12/06 06:48:05;;;;;;;14.35;10.00;;;;;;;4.34;78.88;100824.75;4987428;28;20068;-81
2023/12/06 06:50:33;;;;;;;14.77;10.32;;;;;;;4.31;78.84;100835.47;4977094;28;20046;-81
2023/12/06 06:53:01;;;;;;;17.40;11.07;;;;;;;4.41;78.86;100835.75;4981785;28;20375;-82
2023/12/06 06:55:27;;;;;;;23.77;12.00;;;;;;;4.60;78.41;100841.63;4983719;28;20042;-80
2023/12/06 06:58:01;;;;;;;18.67;11.30;;;;;;;4.46;78.42;100818.78;4987665;28;20053;-81
2023/12/06 07:00:28;;;;;;;30.20;12.60;;;;;;;4.42;78.01;100800.66;4981229;28;20061;-80
2023/12/06 07:02:59;;;;;;;20.17;11.52;;;;;;;4.53;77.50;100813.16;4965993;28;20542;-81
2023/12/06 07:05:26;;;;;;;26.92;11.98;;;;;;;4.74;77.28;100847.84;4973450;28;20046;-80
2023/12/06 07:07:53;;;;;;;27.25;10.75;;;;;;;4.66;77.24;100832.50;4960237;28;20452;-80
2023/12/06 07:10:20;;;;;;;22.48;10.73;;;;;;;4.48;76.96;100800.28;4968724;28;20045;-80
2023/12/06 07:12:47;;;;;;;24.25;10.73;;;;;;;4.66;76.85;100830.75;4974845;28;20500;-82
2023/12/06 07:15:17;;;;;;;13.40;10.05;;;;;;;4.66;76.64;100817.59;4977071;28;20057;-83
2023/12/06 07:17:45;;;;;;;20.55;10.80;;;;;;;4.73;77.51;100836.44;4971972;28;20928;-81
2023/12/06 07:20:12;;;;;;;19.80;11.10;;;;;;;4.19;77.03;100757.34;4969688;28;20045;-81
2023/12/06 07:22:39;;;;;;;21.98;10.40;;;;;;;4.73;76.85;100857.50;4969813;28;20407;-83
2023/12/06 07:25:09;;;;;;;18.33;10.38;;;;;;;4.45;77.16;100822.34;4956231;28;20493;-80
2023/12/06 07:27:38;;;;;;;29.13;10.27;;;;;;;4.60;77.85;100846.03;4974897;28;20061;-82
2023/12/06 07:30:06;;;;;;;21.42;10.98;;;;;;;4.68;78.05;100868.31;4971642;28;20042;-80
2023/12/06 07:32:33;;;;;;;25.48;9.82;;;;;;;4.57;78.08;100851.47;4958090;28;20050;-81
2023/12/06 07:35:12;;;;;;;17.95;10.43;;;;;;;4.32;78.28;100825.78;4973070;28;20046;-81
2023/12/06 07:37:44;;;;;;;22.25;11.75;;;;;;;4.56;78.34;100855.03;4963924;28;20492;-80
2023/12/06 07:40:11;;;;;;;19.35;11.13;;;;;;;4.66;78.72;100866.69;4970803;28;20056;-82
2023/12/06 07:42:40;;;;;;;19.92;9.93;;;;;;;4.65;78.39;100865.00;4963658;28;20045;-81
2023/12/06 07:45:11;;;;;;;15.85;9.82;;;;;;;4.55;78.54;100848.09;4969860;28;20447;-82
2023/12/06 07:47:39;;;;;;;22.52;11.38;;;;;;;4.66;78.67;100869.31;4972264;28;20150;-81
2023/12/06 07:50:08;;;;;;;32.70;11.52;;;;;;;4.70;78.86;100863.78;4971668;28;20456;-81
2023/12/06 07:52:37;;;;;;;23.83;10.75;;;;;;;4.71;78.38;100854.13;4954736;28;20046;-81
2023/12/06 07:55:10;;;;;;;18.60;10.65;;;;;;;4.64;78.17;100853.66;4967584;28;20492;-80
2023/12/06 07:57:42;;;;;;;20.20;11.88;;;;;;;4.76;77.33;100857.34;4970171;28;20137;-81
2023/12/06 08:00:14;;;;;;;26.70;9.80;;;;;;;5.09;76.23;100885.13;4971627;28;20053;-81
2023/12/06 08:02:43;;;;;;;20.20;9.25;;;;;;;5.17;75.37;100877.63;4976476;28;20524;-82
2023/12/06 08:05:13;;;;;;;20.95;11.60;;;;;;;5.17;75.64;100877.63;5002003;28;20049;-80
2023/12/06 08:07:40;;;;;;;20.50;10.27;;;;;;;5.21;76.63;100884.38;4971780;28;20061;-80
2023/12/06 08:10:19;;;;;;;22.42;10.80;;;;;;;5.19;76.24;100875.72;4955871;28;20386;-79
2023/12/06 08:12:48;;;;;;;18.80;10.48;;;;;;;5.22;74.69;100849.22;4964304;28;20054;-83
2023/12/06 08:15:25;;;;;;;17.15;11.68;;;;;;;5.52;73.16;100871.94;4955569;28;20081;-82
2023/12/06 08:17:53;;;;;;;24.02;13.43;;;;;;;5.47;71.06;100832.72;4956230;28;20152;-81
2023/12/06 08:20:20;;;;;;;21.67;12.43;;;;;;;5.38;70.39;100814.03;4969160;28;20445;-79
2023/12/06 08:22:50;;;;;;;18.30;12.10;;;;;;;5.57;69.98;100827.72;4965983;28;20221;-82
2023/12/06 08:25:21;;;;;;;23.13;13.23;;;;;;;5.85;70.06;100883.88;4963464;28;20056;-82
2023/12/06 08:27:48;;;;;;;23.13;13.63;;;;;;;5.58;69.09;100839.91;4963993;28;20073;-81
2023/12/06 08:30:21;;;;;;;18.20;11.88;;;;;;;5.85;68.98;100879.47;4970334;28;20064;-82
2023/12/06 08:32:47;;;;;;;23.65;13.38;;;;;;;5.87;69.10;100897.81;4966840;28;20453;-81
2023/12/06 08:35:14;;;;;;;21.45;13.23;;;;;;;5.89;69.93;100904.66;4952198;28;20065;-82
2023/12/06 08:37:41;;;;;;;20.15;13.07;;;;;;;5.65;69.40;100862.28;4973238;28;20698;-81
2023/12/06 08:40:10;;;;;;;27.63;14.43;;;;;;;5.86;69.28;100896.13;4972361;28;20056;-81
2023/12/06 08:42:37;;;;;;;22.15;13.45;;;;;;;5.92;69.54;100911.53;4966898;28;20672;-82
2023/12/06 08:45:04;;;;;;;23.60;14.68;;;;;;;6.06;69.04;100913.31;4957609;28;20560;-82
2023/12/06 08:47:32;;;;;;;25.50;15.32;;;;;;;6.11;68.70;100912.06;4972100;28;20054;-81
2023/12/06 08:49:59;;;;;;;24.35;13.90;;;;;;;6.13;68.32;100915.44;4947972;28;20455;-80
2023/12/06 08:52:30;;;;;;;25.60;15.05;;;;;;;6.19;67.99;100915.06;4954986;28;20539;-80
2023/12/06 08:55:01;;;;;;;21.30;14.02;;;;;;;6.07;67.79;100894.75;4979135;28;20052;-80
2023/12/06 08:57:28;;;;;;;24.88;14.25;;;;;;;6.25;67.47;100918.22;4969153;28;20595;-79
2023/12/06 08:59:55;;;;;;;27.10;14.45;;;;;;;6.38;66.26;100916.44;4973030;28;20053;-80
2023/12/06 09:02:25;;;;;;;31.65;15.60;;;;;;;6.44;65.87;100928.41;4959935;28;20372;-81
2023/12/06 09:04:55;;;;;;;29.27;16.95;;;;;;;6.30;66.59;100926.69;4962166;28;20068;-81
2023/12/06 09:07:21;;;;;;;27.50;14.45;;;;;;;6.10;66.32;100883.19;4967315;28;20133;-81
2023/12/06 09:09:49;;;;;;;28.02;15.85;;;;;;;6.40;66.04;100917.19;4971072;28;20054;-80
2023/12/06 09:12:16;;;;;;;29.30;13.95;;;;;;;6.44;65.89;100929.25;4975013;28;20061;-79
2023/12/06 09:14:46;;;;;;;26.52;15.35;;;;;;;6.48;66.44;100943.94;4971844;28;20058;-80
2023/12/06 09:17:12;;;;;;;26.45;15.20;;;;;;;6.58;64.94;100916.00;4976555;28;20052;-81
2023/12/06 09:19:39;;;;;;;21.52;13.82;;;;;;;6.67;64.72;100930.34;4964111;28;20726;-80
2023/12/06 09:22:06;;;;;;;23.85;15.05;;;;;;;6.59;64.52;100922.09;4977587;28;20400;-80
2023/12/06 09:24:52;;;;;;;24.88;15.43;;;;;;;6.62;65.03;100922.72;4969430;28;20798;-79
2023/12/06 09:27:19;;;;;;;25.60;16.33;;;;;;;6.36;65.30;100879.66;4975256;28;20053;-81
2023/12/06 09:29:46;;;;;;;26.15;16.33;;;;;;;6.51;65.71;100913.88;4976475;28;20041;-81
2023/12/06 09:32:13;;;;;;;32.05;18.55;;;;;;;6.77;65.89;100941.13;4977621;28;20049;-80
2023/12/06 09:34:41;;;;;;;29.90;17.83;;;;;;;6.84;65.97;100935.34;4963706;28;20057;-81
2023/12/06 09:37:14;;;;;;;29.60;17.67;;;;;;;6.83;65.82;100916.97;4981832;28;20053;-80
2023/12/06 09:39:41;;;;;;;36.35;19.30;;;;;;;7.02;64.28;100935.88;4981386;28;20107;-81
2023/12/06 09:42:07;;;;;;;34.97;19.98;;;;;;;6.92;64.63;100923.38;4973429;28;20044;-79
2023/12/06 09:44:37;;;;;;;34.95;19.48;;;;;;;6.33;64.14;100832.38;4973648;28;20057;-81
2023/12/06 09:47:05;;;;;;;32.42;20.42;;;;;;;7.19;62.87;100936.50;4976360;28;20108;-80
2023/12/06 09:49:31;;;;;;;33.83;18.60;;;;;;;7.13;62.57;100935.13;4984079;28;20488;-80
2023/12/06 09:52:22;;;;;;;36.63;20.23;;;;;;;6.77;63.27;100905.03;4984994;28;20919;-81
2023/12/06 09:54:51;;;;;;;33.20;20.10;;;;;;;6.92;63.56;100929.53;4951439;28;20061;-80
2023/12/06 09:57:18;;;;;;;31.13;20.27;;;;;;;7.01;64.27;100944.72;4952113;28;20046;-80
2023/12/06 09:59:46;;;;;;;34.95;20.17;;;;;;;6.56;65.42;100874.84;4955558;28;20050;-80
2023/12/06 10:02:13;;;;;;;36.45;21.75;;;;;;;7.03;64.14;100937.53;4960339;28;20058;-80
2023/12/06 10:04:40;;;;;;;33.95;20.30;;;;;;;7.01;63.93;100922.75;4969717;28;20046;-80
2023/12/06 10:07:07;;;;;;;34.67;21.13;;;;;;;7.06;63.49;100918.88;4976367;28;20042;-79
2023/12/06 10:09:37;;;;;;;35.83;20.75;;;;;;;6.84;64.16;100889.59;4955949;28;20046;-80
2023/12/06 10:12:11;;;;;;;36.33;21.38;;;;;;;7.22;63.86;100928.38;4963921;28;20484;-80
2023/12/06 10:14:37;;;;;;;37.03;22.08;;;;;;;6.56;63.96;100817.63;4954567;28;20444;-81
2023/12/06 10:17:04;;;;;;;36.70;21.25;;;;;;;7.20;64.01;100939.03;4958164;28;20546;-81
2023/12/06 10:19:35;;;;;;;35.03;22.15;;;;;;;7.21;63.81;100929.31;4948440;28;20433;-81
2023/12/06 10:22:06;;;;;;;36.08;20.80;;;;;;;7.25;63.84;100918.41;4980581;28;20046;-82
2023/12/06 10:24:33;;;;;;;31.50;19.95;;;;;;;7.29;64.17;100916.44;4974391;28;20471;-79
2023/12/06 10:27:11;;;;;;;33.60;20.65;;;;;;;7.15;63.85;100895.41;4969785;28;20104;-79
2023/12/06 10:29:41;;;;;;;37.88;21.10;;;;;;;7.25;63.79;100904.38;4973599;28;20129;-82
2023/12/06 10:32:15;;;;;;;35.83;22.05;;;;;;;7.23;64.04;100916.84;4967575;28;20042;-79
2023/12/06 10:34:43;;;;;;;36.03;21.58;;;;;;;7.18;64.19;100897.84;4975484;28;20054;-80
2023/12/06 10:37:15;;;;;;;40.38;22.63;;;;;;;7.17;64.20;100890.88;4976327;28;20046;-79
2023/12/06 10:39:47;;;;;;;38.10;21.75;;;;;;;7.46;63.14;100913.44;4964450;28;20264;-80
2023/12/06 10:42:31;;;;;;;37.50;21.92;;;;;;;7.43;63.81;100912.81;4980281;28;20156;-81
2023/12/06 10:45:00;;;;;;;34.17;21.27;;;;;;;7.35;62.59;100884.28;4961174;28;20046;-82
2023/12/06 10:47:28;;;;;;;40.67;23.42;;;;;;;7.42;63.35;100898.75;4963349;28;20411;-80
2023/12/06 10:50:00;;;;;;;35.53;22.00;;;;;;;7.35;62.74;100900.13;4958153;28;20042;-80
2023/12/06 10:52:29;;;;;;;34.95;21.80;;;;;;;7.53;62.09;100923.59;4955443;28;20054;-80
2023/12/06 10:55:01;;;;;;;39.40;21.88;;;;;;;7.24;63.02;100882.41;4978195;28;20045;-81
2023/12/06 10:57:28;;;;;;;38.00;20.60;;;;;;;7.34;62.35;100887.88;4970481;28;20054;-80
2023/12/06 10:59:57;;;;;;;36.33;22.05;;;;;;;7.41;62.27;100894.44;4966274;28;20792;-81
2023/12/06 11:02:31;;;;;;;34.15;20.85;;;;;;;7.54;61.87;100914.69;4969742;28;20054;-81
2023/12/06 11:05:06;;;;;;;32.97;21.92;;;;;;;7.22;62.39;100859.72;4960800;28;20058;-80
2023/12/06 11:07:57;;;;;;;40.78;22.45;;;;;;;7.48;62.80;100911.53;4967961;28;20046;-80
2023/12/06 11:10:48;;;;;;;37.93;20.17;;;;;;;7.54;62.36;100910.25;4954950;28;20095;-79
2023/12/06 11:13:35;;;;;;;37.58;21.90;;;;;;;7.19;62.91;100852.00;4947369;28;20304;-80
2023/12/06 11:16:17;;;;;;;35.92;22.48;;;;;;;7.55;62.84;100900.50;4973129;28;20496;-80
2023/12/06 11:18:50;;;;;;;33.88;21.77;;;;;;;7.52;62.93;100898.94;4965165;28;20367;-81
2023/12/06 11:21:22;;;;;;;33.65;20.00;;;;;;;7.62;62.71;100901.75;4983608;28;20495;-80
2023/12/06 11:23:56;;;;;;;35.40;20.45;;;;;;;7.63;61.29;100899.03;4972937;28;20105;-82
2023/12/06 11:26:24;;;;;;;32.65;20.67;;;;;;;7.64;60.24;100890.13;4983249;28;20238;-81
2023/12/06 11:28:54;;;;;;;28.00;18.23;;;;;;;7.60;59.64;100880.75;4976029;28;20080;-80